This is the latest recevied weather packets stored in our database for station/object HS6TUX-4. If no packets are shown the sender has not sent any weather packets the latest 10 day(s).
| Time | Temp. | Humidity | Pressure | Rain* | Wind** | Luminosity | Snow |
|---|---|---|---|---|---|---|---|
| 1777519425 | 32.22° C | 99% | 730 hPa | - | - | 59 W/m² | - |
| 1777518496 | 31.67° C | 99% | 729 hPa | - | - | 25 W/m² | - |
| 1777517568 | 32.22° C | 99% | 730 hPa | - | - | 36 W/m² | - |
| 1777516640 | 32.78° C | 99% | 731 hPa | - | - | 28 W/m² | - |
| 1777515712 | 33.33° C | 99% | 731 hPa | - | - | 75 W/m² | - |
| 1777514783 | 33.33° C | 99% | 731 hPa | - | - | 60 W/m² | - |
| 1777513854 | 31.11° C | 99% | 729 hPa | - | - | 25 W/m² | - |
| 1777512926 | 29.44° C | 99% | 727 hPa | - | - | 7 W/m² | - |
| 1777511997 | 30° C | 99% | 727 hPa | - | - | 8 W/m² | - |
| 1777511069 | 31.67° C | 99% | 730 hPa | - | - | 24 W/m² | - |
| 1777510141 | 31.67° C | 99% | 729 hPa | - | - | 37 W/m² | - |
| 1777509212 | 30° C | 99% | 728 hPa | - | - | 24 W/m² | - |
| 1777508283 | 31.11° C | 99% | 729 hPa | - | - | 26 W/m² | - |
| 1777507355 | 29.44° C | 99% | 727 hPa | - | - | 15 W/m² | - |
| 1777506426 | 28.89° C | 99% | 726 hPa | - | - | 10 W/m² | - |
| 1777505498 | 27.22° C | 99% | 724 hPa | - | - | 5 W/m² | - |
| 1777504570 | 26.67° C | 99% | 724 hPa | - | - | 3 W/m² | - |
| 1777503641 | 26.67° C | 99% | 724 hPa | - | - | 0 W/m² | - |
| 1777502713 | 27.22° C | 99% | 724 hPa | - | - | 0 W/m² | - |
| 1777501784 | 26.67° C | 99% | 724 hPa | - | - | 0 W/m² | - |
| 1777500857 | 26.67° C | 99% | 723 hPa | - | - | 0 W/m² | - |
| 1777499928 | 26.67° C | 99% | 723 hPa | - | - | 0 W/m² | - |
| 1777499000 | 26.67° C | 99% | 724 hPa | - | - | 0 W/m² | - |
| 1777498072 | 27.78° C | 99% | 725 hPa | - | - | 0 W/m² | - |
| 1777497143 | 27.78° C | 99% | 725 hPa | - | - | 0 W/m² | - |
* Rain since midnight (hover to see other rain measurements)
** Current wind speed in m/s (hover to see current wind gust speed)